Time;durP1;ratioP1;P1;durP2;ratioP2;P2;SDS_P1;SDS_P2;PMS_P1;PMS_P2;Temp;Humidity;BMP_temperature;BMP_pressure;BME280_temperature;BME280_humidity;BME280_pressure;Samples;Min_cycle;Max_cycle;Signal;HPM_P1;HPM_P2
2021/11/11 00:02:24;;;;;;;;;58.67;45.00;;;;;;;;5020462;28;45543;-72
2021/11/11 00:04:49;;;;;;;;;51.75;43.75;;;;;;;;5036183;28;46161;-72
2021/11/11 00:07:14;;;;;;;;;59.50;46.00;;;;;;;;5025986;28;45342;-73
2021/11/11 00:09:40;;;;;;;;;58.00;46.00;;;;;;;;5029349;28;45556;-72
2021/11/11 00:12:05;;;;;;;;;59.00;45.33;;;;;;;;5026843;28;45409;-72
2021/11/11 00:14:30;;;;;;;;;58.00;44.50;;;;;;;;5020166;28;45862;-72
2021/11/11 00:16:56;;;;;;;;;56.50;42.00;;;;;;;;5035138;28;45533;-72
2021/11/11 00:19:21;;;;;;;;;61.50;46.25;;;;;;;;5023730;28;45356;-72
2021/11/11 00:21:46;;;;;;;;;62.67;44.67;;;;;;;;5028253;28;45437;-72
2021/11/11 00:24:11;;;;;;;;;64.67;45.67;;;;;;;;5025669;28;46099;-72
2021/11/11 00:26:37;;;;;;;;;60.00;48.00;;;;;;;;5035139;28;45446;-72
2021/11/11 00:29:03;;;;;;;;;62.75;48.00;;;;;;;;5019518;28;45347;-73
2021/11/11 00:31:28;;;;;;;;;61.00;45.75;;;;;;;;5026473;28;45627;-72
2021/11/11 00:33:53;;;;;;;;;66.33;46.67;;;;;;;;5027494;28;46180;-72
2021/11/11 00:36:19;;;;;;;;;61.00;47.67;;;;;;;;5021881;28;45397;-72
2021/11/11 00:38:44;;;;;;;;;67.00;46.50;;;;;;;;5030665;28;45482;-72
2021/11/11 00:41:10;;;;;;;;;57.50;44.75;;;;;;;;5027906;28;45461;-72
2021/11/11 00:43:36;;;;;;;;;60.75;44.50;;;;;;;;5020004;28;46958;-72
2021/11/11 00:46:01;;;;;;;;;68.67;48.00;;;;;;;;5026906;28;45450;-72
2021/11/11 00:48:26;;;;;;;;;61.33;46.33;;;;;;;;5029388;28;45560;-72
2021/11/11 00:50:53;;;;;;;;;57.50;44.75;;;;;;;;5013506;28;45468;-72
2021/11/11 00:53:18;;;;;;;;;72.00;49.75;;;;;;;;5023099;28;46369;-72
2021/11/11 00:55:43;;;;;;;;;49.00;37.75;;;;;;;;5020539;28;45485;-72
2021/11/11 00:58:08;;;;;;;;;70.00;50.00;;;;;;;;5027450;28;45584;-72
2021/11/11 01:00:36;;;;;;;;;65.67;46.67;;;;;;;;5024506;28;45498;-72
2021/11/11 01:03:04;;;;;;;;;71.50;49.25;;;;;;;;5020184;28;46064;-72
2021/11/11 01:05:29;;;;;;;;;71.00;49.25;;;;;;;;5016711;28;45608;-72
2021/11/11 01:07:55;;;;;;;;;59.00;47.00;;;;;;;;4983438;28;1222521;-72
2021/11/11 01:10:20;;;;;;;;;67.75;51.25;;;;;;;;5026965;28;45369;-72
2021/11/11 01:12:47;;;;;;;;;64.75;48.25;;;;;;;;5019659;28;45437;-72
2021/11/11 01:15:14;;;;;;;;;64.25;50.00;;;;;;;;5022218;28;45481;-72
2021/11/11 01:17:40;;;;;;;;;69.75;50.50;;;;;;;;5032498;28;45528;-72
2021/11/11 01:20:08;;;;;;;;;66.25;48.50;;;;;;;;5020393;28;45560;-72
2021/11/11 01:22:34;;;;;;;;;62.00;45.75;;;;;;;;5020489;28;46957;-72
2021/11/11 01:24:59;;;;;;;;;58.00;47.67;;;;;;;;5028039;28;45535;-72
2021/11/11 01:27:24;;;;;;;;;72.33;49.00;;;;;;;;5011269;28;45427;-72
2021/11/11 01:29:49;;;;;;;;;62.33;46.33;;;;;;;;5031198;28;45426;-72
2021/11/11 01:32:14;;;;;;;;;65.33;47.00;;;;;;;;5025182;28;46324;-72
2021/11/11 01:34:40;;;;;;;;;65.33;48.33;;;;;;;;5021239;28;45523;-72
2021/11/11 01:37:05;;;;;;;;;66.50;49.25;;;;;;;;5024807;28;45491;-72
2021/11/11 01:39:31;;;;;;;;;66.00;47.67;;;;;;;;5011373;28;45464;-72
2021/11/11 01:41:56;;;;;;;;;59.00;45.67;;;;;;;;5029491;28;45703;-72
2021/11/11 01:44:21;;;;;;;;;62.50;47.25;;;;;;;;5019196;28;45462;-72
2021/11/11 01:46:47;;;;;;;;;64.25;45.50;;;;;;;;5023105;28;45422;-72
2021/11/11 01:49:16;;;;;;;;;63.50;45.25;;;;;;;;5021734;28;45417;-72
2021/11/11 01:51:41;;;;;;;;;52.75;41.50;;;;;;;;5023522;28;46375;-72
2021/11/11 01:54:07;;;;;;;;;62.00;46.50;;;;;;;;5026435;28;49215;-72
2021/11/11 01:56:33;;;;;;;;;48.00;33.25;;;;;;;;5023989;28;45502;-72
2021/11/11 01:58:58;;;;;;;;;64.50;45.50;;;;;;;;5027385;28;45229;-72
2021/11/11 02:01:23;;;;;;;;;61.33;47.00;;;;;;;;5024413;28;46351;-72
2021/11/11 02:03:51;;;;;;;;;60.25;45.75;;;;;;;;5028410;28;46724;-72
2021/11/11 02:06:17;;;;;;;;;63.25;50.25;;;;;;;;5030821;28;45357;-72
2021/11/11 02:08:43;;;;;;;;;66.00;46.25;;;;;;;;5024682;28;45520;-72
2021/11/11 02:11:09;;;;;;;;;52.75;45.25;;;;;;;;5026788;28;45920;-72
2021/11/11 02:13:34;;;;;;;;;58.00;46.33;;;;;;;;5019517;28;45431;-72
2021/11/11 02:15:59;;;;;;;;;64.00;45.50;;;;;;;;5027597;28;45375;-72
2021/11/11 02:18:24;;;;;;;;;66.33;44.33;;;;;;;;5021672;28;45653;-72
2021/11/11 02:20:50;;;;;;;;;64.33;45.67;;;;;;;;5021885;28;46665;-72
2021/11/11 02:23:17;;;;;;;;;62.33;47.00;;;;;;;;5032085;28;45626;-72
2021/11/11 02:25:43;;;;;;;;;65.75;48.50;;;;;;;;5020952;28;45506;-72
2021/11/11 02:28:10;;;;;;;;;67.50;49.00;;;;;;;;5027589;28;45489;-72
2021/11/11 02:30:37;;;;;;;;;50.75;43.00;;;;;;;;5011044;28;46311;-73
2021/11/11 02:33:08;;;;;;;;;57.25;42.00;;;;;;;;5031267;28;45881;-72
2021/11/11 02:35:33;;;;;;;;;50.75;43.25;;;;;;;;5019315;28;45546;-72
2021/11/11 02:38:00;;;;;;;;;60.33;46.00;;;;;;;;5023619;28;45288;-72
2021/11/11 02:40:26;;;;;;;;;63.75;44.75;;;;;;;;5026349;28;46370;-72
2021/11/11 02:42:52;;;;;;;;;50.25;41.25;;;;;;;;5029069;28;45854;-72
2021/11/11 02:45:20;;;;;;;;;49.50;39.25;;;;;;;;5029896;28;45371;-72
2021/11/11 02:47:46;;;;;;;;;66.25;44.75;;;;;;;;5018141;28;45534;-72
2021/11/11 02:50:12;;;;;;;;;64.50;44.00;;;;;;;;5031686;28;45894;-72
2021/11/11 02:52:37;;;;;;;;;54.75;44.00;;;;;;;;5022423;28;45372;-73
2021/11/11 02:55:03;;;;;;;;;63.25;43.50;;;;;;;;5019133;28;45479;-72
2021/11/11 02:57:28;;;;;;;;;54.25;46.00;;;;;;;;5025882;28;45477;-72
2021/11/11 02:59:55;;;;;;;;;60.00;44.67;;;;;;;;5027834;28;46085;-72
2021/11/11 03:02:22;;;;;;;;;61.75;45.25;;;;;;;;5017053;28;45472;-72
2021/11/11 03:04:47;;;;;;;;;51.00;41.75;;;;;;;;5023465;28;45486;-72
2021/11/11 03:07:13;;;;;;;;;53.00;43.50;;;;;;;;5026468;28;45457;-72
2021/11/11 03:09:39;;;;;;;;;61.00;48.00;;;;;;;;5024537;28;46259;-72
2021/11/11 03:12:06;;;;;;;;;64.50;47.75;;;;;;;;5010427;28;45896;-72
2021/11/11 03:14:32;;;;;;;;;59.50;44.00;;;;;;;;5018807;28;45518;-72
2021/11/11 03:16:57;;;;;;;;;61.00;45.00;;;;;;;;5030083;28;45668;-72
2021/11/11 03:19:22;;;;;;;;;56.67;43.67;;;;;;;;5018742;28;46377;-72
2021/11/11 03:21:48;;;;;;;;;56.67;41.33;;;;;;;;5022512;28;45419;-72
2021/11/11 03:24:13;;;;;;;;;48.25;43.50;;;;;;;;5019769;28;45360;-72
2021/11/11 03:26:39;;;;;;;;;55.25;36.25;;;;;;;;5025524;28;45466;-72
2021/11/11 03:29:04;;;;;;;;;47.25;41.25;;;;;;;;5018732;28;45938;-72
2021/11/11 03:31:29;;;;;;;;;60.00;44.33;;;;;;;;5023652;28;45453;-72
2021/11/11 03:33:56;;;;;;;;;44.67;38.00;;;;;;;;5022662;28;45469;-72
2021/11/11 03:36:21;;;;;;;;;55.00;39.50;;;;;;;;5027400;28;45570;-72
2021/11/11 03:38:46;;;;;;;;;53.67;40.67;;;;;;;;5021138;28;46287;-72
2021/11/11 03:41:11;;;;;;;;;56.00;45.00;;;;;;;;5031259;28;45951;-72
2021/11/11 03:43:37;;;;;;;;;43.67;36.67;;;;;;;;5019193;28;45486;-72
2021/11/11 03:46:03;;;;;;;;;55.25;41.00;;;;;;;;5026786;28;45704;-72
2021/11/11 03:48:28;;;;;;;;;45.75;38.75;;;;;;;;5028438;28;46372;-72
2021/11/11 03:50:53;;;;;;;;;47.00;39.33;;;;;;;;5023421;28;45521;-71
2021/11/11 03:53:19;;;;;;;;;48.33;40.33;;;;;;;;5022493;28;45253;-72
2021/11/11 03:55:44;;;;;;;;;46.00;36.33;;;;;;;;5019734;28;45423;-72
2021/11/11 03:58:15;;;;;;;;;41.00;36.00;;;;;;;;5022812;28;46129;-72
2021/11/11 04:00:40;;;;;;;;;48.75;41.25;;;;;;;;5021301;28;45429;-72
2021/11/11 04:03:05;;;;;;;;;38.00;33.33;;;;;;;;5022294;28;45715;-72
2021/11/11 04:05:31;;;;;;;;;38.33;31.00;;;;;;;;5018015;28;45453;-73
2021/11/11 04:07:56;;;;;;;;;54.00;40.75;;;;;;;;5021419;28;45434;-72
2021/11/11 04:10:21;;;;;;;;;54.33;37.67;;;;;;;;5025850;28;45537;-72
2021/11/11 04:12:46;;;;;;;;;43.67;31.00;;;;;;;;5024233;28;45572;-72
2021/11/11 04:15:12;;;;;;;;;41.25;36.50;;;;;;;;5025080;28;45491;-72
2021/11/11 04:17:37;;;;;;;;;39.67;34.33;;;;;;;;5025822;28;47070;-72
2021/11/11 04:20:03;;;;;;;;;49.25;38.00;;;;;;;;5033169;28;45439;-72
2021/11/11 04:22:28;;;;;;;;;42.50;31.50;;;;;;;;5024440;28;45993;-72
2021/11/11 04:24:55;;;;;;;;;51.33;40.33;;;;;;;;5028169;28;45500;-72
2021/11/11 04:27:32;;;;;;;;;49.75;37.00;;;;;;;;5030563;28;46456;-72
2021/11/11 04:30:27;;;;;;;;;40.50;33.00;;;;;;;;5021450;28;45539;-72
2021/11/11 04:32:43;;;;;;;;;44.50;36.25;;;;;;;;5027572;28;45471;-72
2021/11/11 04:35:09;;;;;;;;;45.00;39.00;;;;;;;;5020436;28;45457;-72
2021/11/11 04:43:04;;;;;;;;;43.75;36.50;;;;;;;;5033464;28;45436;-72
2021/11/11 04:46:36;;;;;;;;;41.75;34.50;;;;;;;;5030925;28;45459;-72
2021/11/11 04:51:25;;;;;;;;;39.75;31.25;;;;;;;;5033877;28;45795;-72
2021/11/11 05:02:39;;;;;;;;;46.00;31.75;;;;;;;;4970556;28;46808;-72
2021/11/11 05:05:05;;;;;;;;;43.25;34.25;;;;;;;;4971932;28;45448;-72
2021/11/11 05:07:31;;;;;;;;;48.50;37.00;;;;;;;;4973610;28;45537;-72
2021/11/11 05:09:56;;;;;;;;;44.75;35.00;;;;;;;;4972148;28;47608;-72
2021/11/11 05:12:21;;;;;;;;;41.33;35.67;;;;;;;;4970623;28;45493;-72
2021/11/11 05:14:46;;;;;;;;;40.33;36.33;;;;;;;;4973031;28;45535;-72
2021/11/11 05:17:11;;;;;;;;;44.67;32.67;;;;;;;;4973172;28;45413;-72
2021/11/11 05:19:38;;;;;;;;;35.00;29.33;;;;;;;;4972453;28;46078;-72
2021/11/11 05:22:03;;;;;;;;;44.00;38.75;;;;;;;;4969701;28;45961;-72
2021/11/11 05:24:28;;;;;;;;;44.00;31.75;;;;;;;;4969287;28;45564;-72
2021/11/11 05:26:54;;;;;;;;;48.33;35.33;;;;;;;;4972854;28;45416;-72
2021/11/11 05:29:20;;;;;;;;;48.25;34.75;;;;;;;;4956957;28;46265;-72
2021/11/11 05:31:45;;;;;;;;;50.00;42.00;;;;;;;;4973440;28;45414;-72
2021/11/11 05:34:10;;;;;;;;;47.67;38.00;;;;;;;;5020736;28;45785;-72
2021/11/11 05:36:35;;;;;;;;;43.33;38.00;;;;;;;;5027202;28;45981;-72
2021/11/11 05:39:00;;;;;;;;;44.00;35.33;;;;;;;;5032509;28;45379;-72
2021/11/11 05:41:26;;;;;;;;;45.00;38.00;;;;;;;;5019282;28;45570;-72
2021/11/11 05:43:51;;;;;;;;;43.67;34.67;;;;;;;;5027542;28;45557;-72
2021/11/11 05:46:16;;;;;;;;;33.25;31.00;;;;;;;;5030446;28;45603;-72
2021/11/11 05:48:41;;;;;;;;;47.33;39.00;;;;;;;;5004507;28;47137;-72
2021/11/11 05:51:07;;;;;;;;;44.67;40.00;;;;;;;;5030205;28;45568;-72
2021/11/11 05:53:32;;;;;;;;;58.00;41.00;;;;;;;;5019972;28;45518;-72
2021/11/11 05:55:57;;;;;;;;;43.67;37.67;;;;;;;;5033956;28;45446;-72
2021/11/11 05:58:22;;;;;;;;;44.33;38.67;;;;;;;;5020532;28;46143;-72
2021/11/11 06:00:48;;;;;;;;;57.25;40.50;;;;;;;;5028503;28;45201;-72
2021/11/11 06:03:13;;;;;;;;;46.00;37.25;;;;;;;;5030928;28;45497;-72
2021/11/11 06:05:39;;;;;;;;;40.75;34.75;;;;;;;;5032806;28;45539;-72
2021/11/11 06:08:04;;;;;;;;;38.67;31.00;;;;;;;;5028493;28;45719;-72
2021/11/11 06:10:29;;;;;;;;;53.00;40.75;;;;;;;;5021395;28;45494;-72
2021/11/11 06:12:54;;;;;;;;;47.00;36.33;;;;;;;;5023563;28;45474;-72
2021/11/11 06:15:20;;;;;;;;;56.33;40.00;;;;;;;;5002142;28;45414;-72
2021/11/11 06:17:46;;;;;;;;;47.67;38.67;;;;;;;;5021019;28;46184;-72
2021/11/11 06:20:16;;;;;;;;;48.00;34.75;;;;;;;;5032221;28;45418;-72
2021/11/11 06:22:42;;;;;;;;;44.00;37.50;;;;;;;;5019416;28;45222;-72
2021/11/11 06:25:08;;;;;;;;;43.00;33.50;;;;;;;;5027787;28;45473;-72
2021/11/11 06:27:33;;;;;;;;;40.75;36.25;;;;;;;;5033404;28;46132;-72
2021/11/11 06:29:58;;;;;;;;;39.00;31.00;;;;;;;;5027191;28;45573;-72
2021/11/11 06:32:23;;;;;;;;;54.00;32.67;;;;;;;;5018660;28;45324;-72
2021/11/11 06:34:48;;;;;;;;;44.00;33.33;;;;;;;;5020777;28;45379;-72
2021/11/11 06:37:13;;;;;;;;;45.00;39.67;;;;;;;;5028522;28;45598;-72
2021/11/11 06:39:39;;;;;;;;;52.67;36.00;;;;;;;;5028678;28;45481;-72
2021/11/11 06:42:04;;;;;;;;;46.33;39.67;;;;;;;;5030719;28;45497;-72
2021/11/11 06:44:30;;;;;;;;;40.33;34.33;;;;;;;;5025969;28;45389;-72
2021/11/11 06:46:55;;;;;;;;;43.75;33.50;;;;;;;;5026185;28;46186;-72
2021/11/11 06:49:21;;;;;;;;;35.33;31.00;;;;;;;;5024846;28;45680;-72
2021/11/11 06:51:46;;;;;;;;;53.00;38.75;;;;;;;;5021964;28;47104;-72
2021/11/11 06:54:12;;;;;;;;;48.25;39.50;;;;;;;;5027202;28;45395;-72
2021/11/11 06:56:37;;;;;;;;;42.25;31.50;;;;;;;;5031058;28;46882;-72
2021/11/11 06:59:02;;;;;;;;;38.00;30.33;;;;;;;;5024972;28;45350;-72
2021/11/11 07:01:28;;;;;;;;;40.00;32.00;;;;;;;;5026942;28;45525;-72
2021/11/11 07:03:53;;;;;;;;;44.67;37.33;;;;;;;;5025283;28;45448;-72
2021/11/11 07:06:18;;;;;;;;;42.67;34.67;;;;;;;;5020410;28;45481;-72
2021/11/11 07:08:44;;;;;;;;;40.33;25.67;;;;;;;;5018097;28;45407;-72
2021/11/11 07:11:09;;;;;;;;;43.25;33.00;;;;;;;;5016283;28;45392;-72
2021/11/11 07:13:34;;;;;;;;;46.25;36.50;;;;;;;;5021034;28;45403;-72
2021/11/11 07:16:00;;;;;;;;;43.33;36.67;;;;;;;;5019792;28;46243;-72
2021/11/11 07:18:26;;;;;;;;;42.75;29.00;;;;;;;;5028832;28;45443;-72
2021/11/11 07:20:53;;;;;;;;;49.25;37.75;;;;;;;;5017753;28;45521;-72
2021/11/11 07:23:20;;;;;;;;;48.00;37.25;;;;;;;;5016957;28;45573;-72
2021/11/11 07:25:46;;;;;;;;;63.50;48.50;;;;;;;;5019836;28;47190;-72
2021/11/11 07:28:11;;;;;;;;;48.00;43.00;;;;;;;;5020742;28;45459;-72
2021/11/11 07:30:36;;;;;;;;;48.50;35.75;;;;;;;;5023431;28;45567;-72
2021/11/11 07:33:02;;;;;;;;;46.75;38.75;;;;;;;;5023341;28;45537;-72
2021/11/11 07:35:28;;;;;;;;;48.25;36.00;;;;;;;;5025887;28;45994;-72
2021/11/11 07:37:53;;;;;;;;;49.25;37.50;;;;;;;;5018803;28;45514;-72
2021/11/11 07:40:20;;;;;;;;;47.75;40.50;;;;;;;;5030513;28;45414;-72
2021/11/11 07:42:45;;;;;;;;;44.25;36.75;;;;;;;;5010685;28;45440;-72
2021/11/11 07:45:12;;;;;;;;;51.25;38.75;;;;;;;;5027845;28;46019;-72
2021/11/11 07:47:37;;;;;;;;;43.50;29.75;;;;;;;;5023356;28;45493;-72
2021/11/11 07:50:04;;;;;;;;;103.00;74.00;;;;;;;;5023858;28;45343;-72
2021/11/11 07:52:29;;;;;;;;;79.50;61.00;;;;;;;;5029748;28;45483;-72
2021/11/11 07:54:55;;;;;;;;;51.50;41.50;;;;;;;;5027187;28;46016;-72
2021/11/11 07:57:21;;;;;;;;;54.75;44.75;;;;;;;;5021487;28;45487;-72
2021/11/11 07:59:48;;;;;;;;;53.25;37.00;;;;;;;;5030059;28;45347;-72
2021/11/11 08:02:14;;;;;;;;;53.25;44.25;;;;;;;;5026985;28;45622;-72
2021/11/11 08:04:39;;;;;;;;;49.00;42.00;;;;;;;;5024101;28;46386;-72
2021/11/11 08:07:04;;;;;;;;;48.67;42.00;;;;;;;;5011579;28;45562;-72
2021/11/11 08:09:29;;;;;;;;;48.67;42.33;;;;;;;;5034003;28;45556;-72
2021/11/11 08:11:54;;;;;;;;;57.00;41.33;;;;;;;;5023161;28;45483;-72
2021/11/11 08:14:20;;;;;;;;;45.00;38.67;;;;;;;;5020533;28;46323;-72
2021/11/11 08:16:45;;;;;;;;;59.00;43.67;;;;;;;;5022284;28;45367;-72
2021/11/11 08:19:10;;;;;;;;;53.00;38.00;;;;;;;;5027230;28;45489;-73
2021/11/11 08:21:35;;;;;;;;;56.00;42.67;;;;;;;;5028829;28;45553;-72
2021/11/11 08:24:00;;;;;;;;;66.00;41.33;;;;;;;;5022910;28;46209;-72
2021/11/11 08:26:26;;;;;;;;;59.00;42.67;;;;;;;;5026725;28;45629;-73
2021/11/11 08:28:52;;;;;;;;;65.25;45.00;;;;;;;;5019353;28;45757;-71
2021/11/11 08:31:17;;;;;;;;;92.00;68.67;;;;;;;;5026099;28;45475;-74
2021/11/11 08:33:42;;;;;;;;;75.33;56.67;;;;;;;;5022467;28;46726;-72
2021/11/11 08:36:08;;;;;;;;;71.50;56.00;;;;;;;;5023104;28;45523;-72
2021/11/11 08:38:33;;;;;;;;;57.50;45.00;;;;;;;;5020017;28;45911;-72
2021/11/11 08:40:59;;;;;;;;;56.75;45.50;;;;;;;;5022690;28;45489;-72
2021/11/11 08:43:24;;;;;;;;;65.50;48.00;;;;;;;;5021714;28;46376;-72
2021/11/11 08:45:49;;;;;;;;;90.50;70.00;;;;;;;;5025524;28;45644;-72
2021/11/11 08:48:15;;;;;;;;;75.00;54.67;;;;;;;;5027397;28;45359;-72
2021/11/11 08:50:41;;;;;;;;;80.50;61.50;;;;;;;;5020950;28;45713;-72
2021/11/11 08:53:07;;;;;;;;;85.25;61.00;;;;;;;;5007478;28;47526;-72
2021/11/11 08:55:33;;;;;;;;;72.50;55.75;;;;;;;;5024643;28;45839;-72
2021/11/11 08:57:59;;;;;;;;;71.25;52.75;;;;;;;;5025125;28;45458;-72
2021/11/11 09:00:26;;;;;;;;;82.50;56.25;;;;;;;;5025574;28;45490;-72
2021/11/11 09:02:52;;;;;;;;;71.75;54.50;;;;;;;;5035129;28;47536;-72
2021/11/11 09:05:18;;;;;;;;;64.00;49.75;;;;;;;;5029884;28;45958;-72
2021/11/11 09:07:43;;;;;;;;;70.75;50.25;;;;;;;;5019780;28;45498;-72
2021/11/11 09:10:10;;;;;;;;;72.25;47.75;;;;;;;;5027863;28;45410;-72
2021/11/11 09:12:35;;;;;;;;;65.50;48.25;;;;;;;;5007655;28;46096;-72
2021/11/11 09:15:03;;;;;;;;;58.33;47.67;;;;;;;;5026474;28;45693;-72
2021/11/11 09:17:29;;;;;;;;;68.00;48.75;;;;;;;;5034472;28;45571;-72
2021/11/11 09:19:54;;;;;;;;;75.25;51.75;;;;;;;;5027539;28;45414;-72
2021/11/11 09:22:20;;;;;;;;;64.25;45.75;;;;;;;;5035731;28;45446;-72
2021/11/11 09:24:45;;;;;;;;;68.75;51.75;;;;;;;;5028180;28;45427;-72
2021/11/11 09:27:11;;;;;;;;;77.00;51.33;;;;;;;;5023390;28;45451;-72
2021/11/11 09:29:36;;;;;;;;;69.67;51.33;;;;;;;;5026540;28;45490;-72
2021/11/11 09:32:01;;;;;;;;;67.00;51.00;;;;;;;;5029972;28;45312;-72
2021/11/11 09:34:26;;;;;;;;;71.00;53.00;;;;;;;;5031745;28;45531;-72
2021/11/11 09:36:51;;;;;;;;;75.00;53.33;;;;;;;;5029217;28;45580;-72
2021/11/11 09:39:17;;;;;;;;;72.33;55.33;;;;;;;;5026417;28;45495;-72
2021/11/11 09:41:42;;;;;;;;;69.00;51.00;;;;;;;;5033946;28;45860;-72
2021/11/11 09:44:08;;;;;;;;;64.75;50.25;;;;;;;;5035275;28;45395;-72
2021/11/11 09:46:33;;;;;;;;;66.50;50.00;;;;;;;;5029626;28;45304;-72
2021/11/11 09:49:00;;;;;;;;;69.33;50.00;;;;;;;;5029769;28;45555;-72
2021/11/11 09:51:25;;;;;;;;;68.75;52.75;;;;;;;;5034295;28;47286;-72
2021/11/11 09:59:10;;;;;;;;;82.75;59.00;;;;;;;;5030463;28;45658;-72
2021/11/11 10:01:35;;;;;;;;;74.00;56.33;;;;;;;;5034647;28;46044;-72
2021/11/11 10:04:01;;;;;;;;;73.00;56.00;;;;;;;;5025373;28;45503;-72
2021/11/11 10:06:27;;;;;;;;;84.25;60.75;;;;;;;;5023046;28;45745;-73
2021/11/11 10:09:00;;;;;;;;;84.00;63.00;;;;;;;;5029323;28;45553;-72
2021/11/11 10:11:26;;;;;;;;;95.50;69.25;;;;;;;;5033469;28;46085;-72
2021/11/11 10:14:18;;;;;;;;;78.25;58.75;;;;;;;;5033545;28;45953;-72
2021/11/11 10:16:55;;;;;;;;;83.25;63.00;;;;;;;;5029879;28;45359;-71
2021/11/11 10:19:20;;;;;;;;;81.00;60.75;;;;;;;;5010596;28;45795;-72
2021/11/11 10:24:28;;;;;;;;;80.00;60.75;;;;;;;;5021853;28;45703;-72
2021/11/11 10:26:58;;;;;;;;;79.50;56.00;;;;;;;;5025407;28;45533;-72
2021/11/11 10:29:32;;;;;;;;;83.75;60.25;;;;;;;;5031647;28;45636;-72
2021/11/11 10:32:09;;;;;;;;;79.25;58.00;;;;;;;;5013755;28;45947;-72
2021/11/11 10:34:43;;;;;;;;;82.50;61.00;;;;;;;;5029319;28;45828;-72
2021/11/11 10:37:08;;;;;;;;;80.25;60.25;;;;;;;;5022075;28;45375;-72
2021/11/11 10:39:33;;;;;;;;;81.75;60.75;;;;;;;;5023940;28;48308;-72
2021/11/11 10:42:11;;;;;;;;;80.33;59.67;;;;;;;;5024945;28;45403;-72
2021/11/11 10:44:36;;;;;;;;;84.00;61.50;;;;;;;;5031717;28;45729;-72
2021/11/11 10:47:03;;;;;;;;;80.00;59.67;;;;;;;;5027027;28;45784;-72
2021/11/11 10:49:33;;;;;;;;;76.25;58.00;;;;;;;;5032922;28;45389;-72
2021/11/11 10:52:17;;;;;;;;;82.50;61.25;;;;;;;;5020808;28;45646;-72
2021/11/11 10:54:57;;;;;;;;;83.75;59.25;;;;;;;;5009798;28;46119;-72
2021/11/11 10:57:37;;;;;;;;;83.75;61.75;;;;;;;;5026345;28;45461;-72
2021/11/11 11:00:05;;;;;;;;;82.00;61.00;;;;;;;;5025842;28;45441;-71
2021/11/11 11:02:30;;;;;;;;;77.25;60.00;;;;;;;;5021290;28;45526;-71
2021/11/11 11:05:05;;;;;;;;;84.00;61.33;;;;;;;;5023130;28;45360;-72
2021/11/11 11:07:30;;;;;;;;;81.75;60.75;;;;;;;;5031288;28;45249;-71
2021/11/11 11:10:06;;;;;;;;;81.67;60.00;;;;;;;;5030843;28;45429;-72
2021/11/11 11:12:32;;;;;;;;;80.50;60.00;;;;;;;;5027447;28;46221;-72
2021/11/11 11:14:57;;;;;;;;;132.33;104.00;;;;;;;;5029295;28;45510;-72
2021/11/11 11:17:22;;;;;;;;;84.00;61.33;;;;;;;;5017323;28;45569;-72
2021/11/11 11:19:48;;;;;;;;;80.25;60.75;;;;;;;;5031515;28;45501;-71
2021/11/11 11:22:21;;;;;;;;;80.75;59.25;;;;;;;;5033221;28;46561;-71
2021/11/11 11:24:47;;;;;;;;;77.00;58.25;;;;;;;;5032947;28;45784;-71
2021/11/11 11:27:14;;;;;;;;;78.67;60.33;;;;;;;;5026144;28;45505;-72
2021/11/11 11:32:06;;;;;;;;;75.00;58.00;;;;;;;;5030736;28;46156;-72
2021/11/11 11:34:37;;;;;;;;;88.00;61.50;;;;;;;;5029703;28;45425;-72
2021/11/11 11:37:04;;;;;;;;;81.75;59.75;;;;;;;;5006444;28;45533;-72
2021/11/11 11:39:41;;;;;;;;;78.25;60.75;;;;;;;;5035186;28;45475;-72
2021/11/11 11:42:11;;;;;;;;;84.75;62.00;;;;;;;;5026186;28;45582;-72
2021/11/11 11:44:36;;;;;;;;;84.75;61.75;;;;;;;;5029004;28;45598;-72
2021/11/11 11:47:07;;;;;;;;;87.67;64.33;;;;;;;;5024081;28;45593;-73
2021/11/11 11:49:34;;;;;;;;;80.25;61.00;;;;;;;;5023672;28;46796;-73
2021/11/11 11:52:00;;;;;;;;;85.25;63.00;;;;;;;;5035512;28;46041;-73
2021/11/11 11:56:55;;;;;;;;;89.50;74.75;;;;;;;;5028682;28;45397;-72
2021/11/11 11:59:24;;;;;;;;;90.75;70.75;;;;;;;;5035184;28;45363;-72
2021/11/11 12:05:06;;;;;;;;;88.50;64.25;;;;;;;;5010239;28;45778;-72
2021/11/11 12:15:49;;;;;;;;;74.00;56.25;;;;;;;;5034777;28;45734;-73
2021/11/11 12:39:55;;;;;;;;;66.00;51.00;;;;;;;;5031881;28;45325;-73
2021/11/11 12:42:33;;;;;;;;;67.75;50.50;;;;;;;;5033681;28;45481;-73
2021/11/11 12:45:10;;;;;;;;;69.75;51.50;;;;;;;;5031687;28;46192;-73
2021/11/11 12:47:35;;;;;;;;;62.50;44.50;;;;;;;;5033060;28;46916;-73
2021/11/11 12:50:19;;;;;;;;;63.33;49.67;;;;;;;;5006265;28;45491;-73
2021/11/11 12:52:45;;;;;;;;;66.25;48.50;;;;;;;;5031076;28;46878;-72
2021/11/11 12:55:17;;;;;;;;;65.75;47.50;;;;;;;;5035158;28;47227;-73
2021/11/11 12:57:59;;;;;;;;;64.75;50.25;;;;;;;;5030657;28;47497;-73
2021/11/11 13:00:33;;;;;;;;;68.75;52.25;;;;;;;;5035436;28;45601;-73
2021/11/11 13:02:59;;;;;;;;;64.75;47.00;;;;;;;;5032030;28;45724;-73
2021/11/11 13:05:43;;;;;;;;;64.25;46.00;;;;;;;;5033295;28;45433;-72
2021/11/11 13:08:09;;;;;;;;;62.50;46.25;;;;;;;;5026814;28;45496;-73
2021/11/11 13:10:50;;;;;;;;;56.75;45.50;;;;;;;;5034837;28;45509;-72
2021/11/11 13:13:19;;;;;;;;;64.75;48.25;;;;;;;;5026308;28;45533;-73
2021/11/11 13:15:45;;;;;;;;;58.25;44.75;;;;;;;;5026786;28;45881;-73
2021/11/11 13:18:10;;;;;;;;;63.00;48.00;;;;;;;;5034659;28;45546;-73
2021/11/11 13:20:54;;;;;;;;;63.00;48.00;;;;;;;;5034293;28;45362;-73
2021/11/11 13:23:32;;;;;;;;;69.25;51.25;;;;;;;;5020620;28;45658;-73
2021/11/11 14:02:52;;;;;;;;;64.50;50.75;;;;;;;;4993257;28;47197;-73
2021/11/11 16:01:11;;;;;;;;;79.00;57.25;;;;;;;;5013428;28;45913;-71
2021/11/11 16:03:56;;;;;;;;;73.00;55.00;;;;;;;;5014920;28;45422;-72
2021/11/11 16:21:07;;;;;;;;;64.50;47.75;;;;;;;;4994054;28;45535;-72
2021/11/11 16:23:18;;;;;;;;;62.50;47.00;;;;;;;;4989557;28;46455;-72
2021/11/11 16:26:02;;;;;;;;;62.00;47.75;;;;;;;;4991233;28;45455;-71
2021/11/11 16:28:28;;;;;;;;;63.00;49.00;;;;;;;;4989696;28;47488;-71
2021/11/11 16:30:53;;;;;;;;;80.00;61.67;;;;;;;;4973130;28;45684;-71
2021/11/11 16:33:19;;;;;;;;;62.67;47.33;;;;;;;;4971217;28;45626;-70
2021/11/11 16:35:44;;;;;;;;;66.25;50.25;;;;;;;;4957640;28;45914;-70
2021/11/11 16:38:12;;;;;;;;;83.33;59.33;;;;;;;;4972970;28;45320;-70
2021/11/11 16:40:37;;;;;;;;;72.75;56.50;;;;;;;;4955152;28;45606;-70
2021/11/11 16:43:03;;;;;;;;;75.25;53.50;;;;;;;;4969539;28;45502;-72
2021/11/11 16:45:28;;;;;;;;;77.33;57.33;;;;;;;;4966359;28;45290;-72
2021/11/11 16:47:53;;;;;;;;;74.33;57.67;;;;;;;;4967976;28;45960;-72
2021/11/11 16:50:19;;;;;;;;;72.00;56.00;;;;;;;;5017803;28;45601;-72
2021/11/11 16:52:45;;;;;;;;;72.50;53.00;;;;;;;;5022210;28;46943;-72
2021/11/11 16:55:10;;;;;;;;;77.00;56.75;;;;;;;;5024727;28;45528;-72
2021/11/11 16:57:35;;;;;;;;;78.33;56.00;;;;;;;;5024798;28;45682;-72
2021/11/11 17:00:01;;;;;;;;;73.25;56.00;;;;;;;;5021622;28;45571;-72
2021/11/11 17:02:26;;;;;;;;;78.25;59.50;;;;;;;;5020942;28;47203;-72
2021/11/11 17:04:52;;;;;;;;;84.00;61.33;;;;;;;;5025341;28;45504;-72
2021/11/11 17:07:20;;;;;;;;;83.25;59.00;;;;;;;;5029312;28;45592;-72
2021/11/11 17:09:46;;;;;;;;;82.75;62.50;;;;;;;;5029303;28;45564;-72
2021/11/11 17:12:11;;;;;;;;;74.50;53.75;;;;;;;;5022102;28;46861;-72
2021/11/11 17:14:40;;;;;;;;;81.75;59.75;;;;;;;;5026460;28;45587;-72
2021/11/11 17:17:05;;;;;;;;;77.00;60.75;;;;;;;;5021311;28;45476;-73
2021/11/11 17:19:30;;;;;;;;;78.75;58.00;;;;;;;;5032026;28;45457;-72
2021/11/11 17:21:58;;;;;;;;;80.25;59.00;;;;;;;;5031894;28;46204;-72
2021/11/11 17:24:34;;;;;;;;;77.25;57.25;;;;;;;;5026887;28;48493;-72
2021/11/11 17:29:28;;;;;;;;;75.00;56.50;;;;;;;;5018984;28;45545;-71
2021/11/11 17:31:55;;;;;;;;;82.25;61.25;;;;;;;;5031345;28;45465;-71
2021/11/11 17:34:20;;;;;;;;;76.75;57.00;;;;;;;;5029896;28;45539;-71
2021/11/11 17:36:45;;;;;;;;;85.50;62.25;;;;;;;;5031493;28;45448;-71
2021/11/11 17:39:11;;;;;;;;;80.67;62.00;;;;;;;;5031606;28;45748;-72
2021/11/11 17:41:38;;;;;;;;;84.50;64.00;;;;;;;;5030401;28;45532;-71
2021/11/11 17:44:07;;;;;;;;;76.00;54.25;;;;;;;;5031083;28;45861;-72
2021/11/11 17:46:36;;;;;;;;;74.00;56.00;;;;;;;;5031601;28;45527;-71
2021/11/11 17:49:02;;;;;;;;;76.50;58.75;;;;;;;;5027611;28;45513;-72
2021/11/11 17:51:41;;;;;;;;;78.00;58.25;;;;;;;;5027557;28;46167;-71
2021/11/11 17:54:21;;;;;;;;;79.25;59.00;;;;;;;;5030608;28;45943;-71
2021/11/11 17:56:50;;;;;;;;;73.25;58.00;;;;;;;;5008220;28;45672;-71
2021/11/11 17:59:15;;;;;;;;;79.50;57.25;;;;;;;;5029002;28;45736;-71
2021/11/11 18:01:41;;;;;;;;;77.50;57.00;;;;;;;;5031391;28;46907;-72
2021/11/11 18:04:07;;;;;;;;;74.25;55.50;;;;;;;;5027229;28;45521;-72
2021/11/11 18:06:38;;;;;;;;;74.00;56.00;;;;;;;;5028998;28;45489;-71
2021/11/11 18:09:08;;;;;;;;;80.25;57.25;;;;;;;;5030311;28;45557;-73